createdAt,value
2022-12-05T00:00:36.699Z,10.98
2022-12-05T00:04:41.203Z,11.55
2022-12-05T00:08:45.127Z,19.10
2022-12-05T00:12:48.801Z,11.20
2022-12-05T00:16:51.934Z,12.52
2022-12-05T00:20:56.898Z,12.63
2022-12-05T00:25:00.472Z,16.27
2022-12-05T00:29:03.607Z,17.45
2022-12-05T00:33:07.440Z,18.40
2022-12-05T00:37:12.494Z,17.92
2022-12-05T00:41:17.984Z,17.00
2022-12-05T00:45:21.543Z,18.95
2022-12-05T00:49:24.668Z,17.60
2022-12-05T00:53:29.586Z,20.58
2022-12-05T00:57:34.013Z,17.45
2022-12-05T01:01:39.734Z,20.60
2022-12-05T01:05:43.282Z,21.15
2022-12-05T01:09:48.514Z,23.88
2022-12-05T01:13:51.943Z,31.90
2022-12-05T01:17:55.599Z,29.30
2022-12-05T01:22:00.216Z,28.33
2022-12-05T01:26:07.970Z,30.55
2022-12-05T01:30:11.799Z,33.53
2022-12-05T01:34:17.804Z,33.17
2022-12-05T01:38:21.211Z,33.08
2022-12-05T01:42:26.685Z,33.45
2022-12-05T01:46:32.759Z,34.33
2022-12-05T01:50:36.742Z,34.75
2022-12-05T01:54:40.671Z,26.15
2022-12-05T01:58:47.554Z,33.28
2022-12-05T02:02:54.056Z,28.67
2022-12-05T02:06:57.723Z,34.92
2022-12-05T02:11:01.112Z,32.67
2022-12-05T02:15:23.593Z,31.20
2022-12-05T02:19:59.306Z,32.42
2022-12-05T02:24:27.204Z,34.65
2022-12-05T02:29:00.556Z,33.15
2022-12-05T02:33:14.601Z,27.42
2022-12-05T02:37:24.714Z,24.85
2022-12-05T02:41:34.045Z,30.35
2022-12-05T02:45:41.482Z,21.42
2022-12-05T02:49:46.802Z,32.25
2022-12-05T02:53:52.108Z,27.48
2022-12-05T02:58:00.444Z,32.28
2022-12-05T03:02:03.997Z,33.90
2022-12-05T03:06:15.449Z,35.28
2022-12-05T03:10:23.226Z,26.35
2022-12-05T03:14:30.262Z,28.35
2022-12-05T03:18:39.293Z,24.77
2022-12-05T03:22:48.423Z,27.95
2022-12-05T03:27:03.300Z,24.08
2022-12-05T03:31:12.618Z,28.10
2022-12-05T03:35:24.957Z,23.00
2022-12-05T03:39:34.527Z,31.38
2022-12-05T03:43:46.176Z,30.23
2022-12-05T03:47:52.904Z,34.35
2022-12-05T03:52:02.112Z,26.77
2022-12-05T03:56:12.302Z,31.35
2022-12-05T04:00:19.581Z,27.98
2022-12-05T04:04:27.554Z,30.73
2022-12-05T04:08:35.137Z,25.40
2022-12-05T04:12:43.352Z,17.63
2022-12-05T04:17:04.978Z,25.48
2022-12-05T04:21:26.260Z,24.25
2022-12-05T04:25:38.547Z,22.27
2022-12-05T04:29:52.459Z,17.75
2022-12-05T04:34:00.352Z,16.83
2022-12-05T04:38:08.577Z,13.57
2022-12-05T04:42:16.316Z,18.25
2022-12-05T04:46:24.157Z,16.63
2022-12-05T04:50:31.382Z,16.55
2022-12-05T04:54:39.618Z,14.77
2022-12-05T04:58:43.273Z,10.13
2022-12-05T05:02:52.277Z,12.32
2022-12-05T05:06:55.893Z,12.95
2022-12-05T05:11:14.518Z,10.20
2022-12-05T05:15:18.232Z,9.85
2022-12-05T05:19:23.285Z,15.70
2022-12-05T05:23:29.709Z,10.63
2022-12-05T05:27:32.663Z,10.38
2022-12-05T05:31:36.833Z,9.90
2022-12-05T05:35:41.697Z,10.93
2022-12-05T05:39:45.489Z,11.77
2022-12-05T05:43:49.394Z,12.68
2022-12-05T05:47:52.500Z,11.68
2022-12-05T05:51:57.431Z,10.93
2022-12-05T05:56:04.743Z,15.82
2022-12-05T06:00:09.832Z,13.80
2022-12-05T06:04:12.830Z,14.02
2022-12-05T06:08:17.758Z,11.50
2022-12-05T06:12:21.382Z,21.42
2022-12-05T06:16:25.800Z,8.85
2022-12-05T06:20:29.420Z,10.48
2022-12-05T06:24:34.012Z,14.30
2022-12-05T06:28:37.795Z,12.73
2022-12-05T06:32:42.065Z,17.02
2022-12-05T06:36:46.324Z,13.65
2022-12-05T06:40:50.700Z,15.43
2022-12-05T06:44:54.313Z,19.27
2022-12-05T06:48:58.980Z,16.00
2022-12-05T06:53:02.824Z,20.17
2022-12-05T06:57:07.805Z,17.50
2022-12-05T07:01:31.345Z,17.50
2022-12-05T07:05:35.464Z,16.67
2022-12-05T07:09:49.060Z,16.83
2022-12-05T07:13:54.265Z,16.17
2022-12-05T07:17:57.459Z,14.88
2022-12-05T07:22:00.525Z,16.50
2022-12-05T07:26:07.917Z,17.50
2022-12-05T07:30:13.156Z,18.25
2022-12-05T07:34:16.830Z,20.33
2022-12-05T07:38:19.958Z,15.77
2022-12-05T07:42:23.584Z,14.52
2022-12-05T07:46:30.270Z,22.15
2022-12-05T07:50:33.923Z,18.83
2022-12-05T07:54:37.149Z,16.45
2022-12-05T07:58:40.788Z,18.58
2022-12-05T08:02:46.140Z,21.10
2022-12-05T08:06:49.506Z,23.80
2022-12-05T08:10:53.431Z,15.57
2022-12-05T08:14:57.365Z,17.02
2022-12-05T08:19:04.012Z,16.38
2022-12-05T08:23:07.579Z,19.33
2022-12-05T08:27:10.858Z,18.50
2022-12-05T08:31:16.529Z,16.98
2022-12-05T08:35:21.534Z,18.40
2022-12-05T08:39:24.851Z,22.35
2022-12-05T08:43:28.404Z,17.02
2022-12-05T08:47:32.589Z,29.67
2022-12-05T08:51:37.882Z,23.98
2022-12-05T08:55:41.619Z,20.92
2022-12-05T08:59:47.230Z,24.30
2022-12-05T09:03:50.947Z,19.05
2022-12-05T09:07:55.835Z,17.45
2022-12-05T09:12:00.878Z,23.10
2022-12-05T09:16:09.040Z,19.27
2022-12-05T09:20:14.523Z,22.10
2022-12-05T09:24:19.225Z,25.00
2022-12-05T09:28:24.154Z,21.42
2022-12-05T09:32:28.297Z,22.02
2022-12-05T09:36:33.597Z,21.63
2022-12-05T09:40:43.608Z,21.48
2022-12-05T09:45:00.906Z,28.17
2022-12-05T09:49:05.871Z,19.80
2022-12-05T09:53:16.405Z,20.95
2022-12-05T09:57:33.859Z,31.30
2022-12-05T10:01:43.184Z,22.23
2022-12-05T10:05:52.063Z,18.52
2022-12-05T10:10:04.782Z,22.48
2022-12-05T10:14:25.119Z,13.70
2022-12-05T10:18:38.851Z,18.27
2022-12-05T10:22:49.319Z,17.33
2022-12-05T10:26:57.381Z,18.77
2022-12-05T10:31:07.238Z,14.57
2022-12-05T10:35:18.877Z,14.52
2022-12-05T10:39:22.696Z,14.80
2022-12-05T10:43:29.447Z,13.07
2022-12-05T10:47:35.058Z,15.52
2022-12-05T10:51:39.368Z,17.30
2022-12-05T10:56:06.371Z,9.95
2022-12-05T11:00:15.929Z,19.55
2022-12-05T11:04:28.201Z,17.40
2022-12-05T11:09:02.969Z,18.93
2022-12-05T11:12:59.339Z,21.83
2022-12-05T11:17:04.948Z,13.90
2022-12-05T11:21:14.532Z,9.77
2022-12-05T11:25:26.544Z,11.88
2022-12-05T11:29:37.032Z,14.40
2022-12-05T11:33:41.428Z,16.67
2022-12-05T11:37:53.925Z,12.88
2022-12-05T11:46:58.420Z,13.40
2022-12-05T11:51:18.170Z,11.10
2022-12-05T11:55:28.852Z,11.90
2022-12-05T11:59:55.288Z,14.25
2022-12-05T12:04:26.056Z,10.80
2022-12-05T12:08:31.631Z,12.23
2022-12-05T12:12:48.956Z,13.65
2022-12-05T12:17:04.424Z,12.77
2022-12-05T12:21:19.862Z,5.63
2022-12-05T12:25:35.248Z,11.35
2022-12-05T12:30:01.974Z,8.18
2022-12-05T12:34:21.224Z,9.23
2022-12-05T12:38:46.879Z,10.13
2022-12-05T12:43:07.311Z,11.70
2022-12-05T12:47:19.967Z,7.47
2022-12-05T12:51:23.040Z,12.25
2022-12-05T12:55:33.433Z,12.65
2022-12-05T12:59:59.077Z,12.90
2022-12-05T13:04:13.158Z,14.80
2022-12-05T13:08:25.442Z,14.50
2022-12-05T13:12:31.620Z,13.73
2022-12-05T13:16:45.864Z,12.63
2022-12-05T13:20:54.431Z,13.48
2022-12-05T13:25:05.977Z,14.38
2022-12-05T13:29:22.769Z,13.45
2022-12-05T13:33:28.837Z,12.60
2022-12-05T13:37:51.564Z,12.75
2022-12-05T13:42:16.586Z,15.60
2022-12-05T13:46:27.840Z,13.85
2022-12-05T13:50:37.675Z,15.45
2022-12-05T13:54:47.875Z,15.50
2022-12-05T13:58:52.725Z,19.45
2022-12-05T14:02:59.094Z,14.63
2022-12-05T14:07:03.077Z,14.68
2022-12-05T14:11:13.103Z,8.45
2022-12-05T14:15:43.451Z,16.45
2022-12-05T14:20:01.867Z,14.00
2022-12-05T14:24:12.779Z,13.95
2022-12-05T14:28:38.150Z,12.75
2022-12-05T14:32:44.639Z,10.30
2022-12-05T14:37:06.663Z,9.88
2022-12-05T14:41:17.244Z,8.53
2022-12-05T14:45:30.545Z,14.77
2022-12-05T14:49:55.406Z,12.00
2022-12-05T14:54:04.566Z,9.50
2022-12-05T14:58:18.123Z,8.90
2022-12-05T15:02:28.896Z,13.35
2022-12-05T15:06:35.227Z,12.43
2022-12-05T15:10:41.834Z,9.25
2022-12-05T15:14:51.793Z,12.93
2022-12-05T15:19:00.296Z,11.38
2022-12-05T15:23:04.073Z,11.60
2022-12-05T15:27:11.764Z,9.65
2022-12-05T15:31:15.987Z,7.45
2022-12-05T15:35:24.053Z,9.45
2022-12-05T15:39:28.791Z,14.00
2022-12-05T15:43:33.865Z,13.43
2022-12-05T15:47:37.375Z,13.55
2022-12-05T15:51:42.523Z,13.38
2022-12-05T15:55:50.587Z,13.10
2022-12-05T15:59:58.342Z,18.00
2022-12-05T16:04:06.868Z,10.45
2022-12-05T16:08:11.476Z,11.05
2022-12-05T16:12:24.852Z,16.80
2022-12-05T16:16:32.628Z,13.38
2022-12-05T16:20:37.735Z,15.05
2022-12-05T16:24:46.448Z,13.50
2022-12-05T16:29:00.790Z,11.30
2022-12-05T16:33:07.418Z,9.10
2022-12-05T16:37:20.327Z,19.10
2022-12-05T16:41:37.332Z,11.30
2022-12-05T16:45:42.270Z,16.13
2022-12-05T16:49:47.258Z,19.13
2022-12-05T16:53:52.661Z,19.27
2022-12-05T16:57:57.611Z,19.50
2022-12-05T17:02:02.528Z,11.27
2022-12-05T17:06:07.618Z,14.30
2022-12-05T17:10:11.482Z,11.73
2022-12-05T17:14:19.120Z,12.95
2022-12-05T17:18:29.605Z,15.75
2022-12-05T17:22:35.003Z,15.60
2022-12-05T17:26:38.045Z,16.48
2022-12-05T17:30:43.302Z,14.90
2022-12-05T17:34:46.855Z,19.38
2022-12-05T17:38:50.928Z,9.93
2022-12-05T17:42:54.572Z,12.85
2022-12-05T17:47:04.475Z,17.27
2022-12-05T17:51:13.660Z,14.13
2022-12-05T17:55:20.560Z,16.02
2022-12-05T17:59:23.630Z,15.23
2022-12-05T18:03:28.821Z,14.38
2022-12-05T18:07:32.795Z,19.33
2022-12-05T18:11:36.767Z,20.88
2022-12-05T18:20:06.615Z,18.80
2022-12-05T18:24:10.217Z,13.85
2022-12-05T18:28:17.826Z,15.40
2022-12-05T18:32:26.871Z,16.85
2022-12-05T18:36:32.562Z,22.88
2022-12-05T18:40:41.159Z,15.75
2022-12-05T18:44:47.621Z,13.75
2022-12-05T18:48:53.341Z,15.02
2022-12-05T18:52:58.607Z,16.60
2022-12-05T18:57:02.191Z,10.95
2022-12-05T19:01:08.246Z,13.10
2022-12-05T19:05:12.403Z,9.32
2022-12-05T19:09:24.611Z,11.35
2022-12-05T19:13:30.334Z,11.27
2022-12-05T19:22:02.758Z,5.72
2022-12-05T19:26:10.284Z,11.10
2022-12-05T19:30:16.491Z,9.75
2022-12-05T19:34:20.294Z,5.80
2022-12-05T19:38:24.188Z,6.13
2022-12-05T19:42:29.686Z,7.38
2022-12-05T19:46:35.170Z,5.75
2022-12-05T19:50:38.830Z,8.45
2022-12-05T19:54:42.332Z,8.52
2022-12-05T19:58:48.516Z,5.55
2022-12-05T20:02:51.616Z,6.75
2022-12-05T20:06:55.354Z,5.60
2022-12-05T20:10:58.712Z,3.13
2022-12-05T20:15:04.303Z,4.22
2022-12-05T20:19:16.676Z,4.90
2022-12-05T20:23:21.175Z,2.80
2022-12-05T20:27:25.877Z,4.15
2022-12-05T20:31:37.460Z,3.47
2022-12-05T20:35:42.198Z,2.95
2022-12-05T20:39:46.525Z,8.65
2022-12-05T20:43:55.913Z,2.70
